createdAt,value
2022-12-03T00:01:45.453Z,22.65
2022-12-03T00:04:12.013Z,20.58
2022-12-03T00:06:38.592Z,22.42
2022-12-03T00:09:05.436Z,20.92
2022-12-03T00:11:32.429Z,21.17
2022-12-03T00:13:58.898Z,17.48
2022-12-03T00:16:25.823Z,21.23
2022-12-03T00:18:52.893Z,20.73
2022-12-03T00:21:20.004Z,19.90
2022-12-03T00:23:46.554Z,22.60
2022-12-03T00:26:13.426Z,17.88
2022-12-03T00:28:39.922Z,20.70
2022-12-03T00:31:06.524Z,19.17
2022-12-03T00:33:33.140Z,19.83
2022-12-03T00:35:59.634Z,23.20
2022-12-03T00:38:26.175Z,23.85
2022-12-03T00:40:52.663Z,23.80
2022-12-03T00:43:19.127Z,21.92
2022-12-03T00:45:45.626Z,20.38
2022-12-03T00:48:12.093Z,21.25
2022-12-03T00:50:38.579Z,21.50
2022-12-03T00:53:05.063Z,21.10
2022-12-03T00:55:31.570Z,22.10
2022-12-03T00:57:58.081Z,19.75
2022-12-03T01:00:25.409Z,19.67
2022-12-03T01:02:52.970Z,20.90
2022-12-03T01:05:20.362Z,16.42
2022-12-03T01:07:47.849Z,20.70
2022-12-03T01:10:14.685Z,17.13
2022-12-03T01:12:41.199Z,19.75
2022-12-03T01:15:08.515Z,20.80
2022-12-03T01:17:35.356Z,19.00
2022-12-03T01:20:02.353Z,19.05
2022-12-03T01:22:28.855Z,20.42
2022-12-03T01:24:55.723Z,17.67
2022-12-03T01:27:22.795Z,19.27
2022-12-03T01:29:49.302Z,20.40
2022-12-03T01:32:22.000Z,19.92
2022-12-03T01:34:56.116Z,19.67
2022-12-03T01:37:24.902Z,19.15
2022-12-03T01:39:52.218Z,16.75
2022-12-03T01:42:27.175Z,16.85
2022-12-03T01:44:56.625Z,20.70
2022-12-03T01:47:33.603Z,18.38
2022-12-03T01:50:04.473Z,17.27
2022-12-03T01:52:33.939Z,16.88
2022-12-03T01:55:02.704Z,16.88
2022-12-03T01:57:41.546Z,15.38
2022-12-03T02:00:22.768Z,18.40
2022-12-03T02:02:56.255Z,17.95
2022-12-03T02:05:26.300Z,17.90
2022-12-03T02:07:53.470Z,18.63
2022-12-03T02:10:25.484Z,19.23
2022-12-03T02:12:57.835Z,18.08
2022-12-03T02:15:24.958Z,15.38
2022-12-03T02:17:52.190Z,18.83
2022-12-03T02:20:19.724Z,17.60
2022-12-03T02:22:49.120Z,18.90
2022-12-03T02:25:21.217Z,18.98
2022-12-03T02:27:48.366Z,16.67
2022-12-03T02:30:18.962Z,19.23
2022-12-03T02:32:45.885Z,18.15
2022-12-03T02:35:19.496Z,16.67
2022-12-03T02:38:13.201Z,17.05
2022-12-03T02:40:40.683Z,16.67
2022-12-03T02:43:07.418Z,13.40
2022-12-03T02:45:38.716Z,15.60
2022-12-03T02:48:16.493Z,16.45
2022-12-03T02:50:53.100Z,17.30
2022-12-03T02:53:24.931Z,15.88
2022-12-03T02:55:53.262Z,16.90
2022-12-03T02:58:20.675Z,16.05
2022-12-03T03:00:49.448Z,16.02
2022-12-03T03:03:17.918Z,17.38
2022-12-03T03:05:45.565Z,17.92
2022-12-03T03:08:13.039Z,16.92
2022-12-03T03:10:41.629Z,15.05
2022-12-03T03:13:11.626Z,16.42
2022-12-03T03:15:39.689Z,17.02
2022-12-03T03:18:07.728Z,17.95
2022-12-03T03:20:35.030Z,14.30
2022-12-03T03:23:19.801Z,17.90
2022-12-03T03:25:50.451Z,13.93
2022-12-03T03:28:17.713Z,15.25
2022-12-03T03:30:44.727Z,15.05
2022-12-03T03:33:13.063Z,13.35
2022-12-03T03:35:40.196Z,16.27
2022-12-03T03:38:09.002Z,16.25
2022-12-03T03:40:37.087Z,17.45
2022-12-03T03:43:04.141Z,14.43
2022-12-03T03:45:30.805Z,13.45
2022-12-03T03:48:01.240Z,17.30
2022-12-03T03:50:31.433Z,17.52
2022-12-03T03:52:59.608Z,14.80
2022-12-03T03:55:26.469Z,13.40
2022-12-03T03:57:53.196Z,15.68
2022-12-03T04:00:19.921Z,15.02
2022-12-03T04:02:46.854Z,15.25
2022-12-03T04:05:19.228Z,15.15
2022-12-03T04:07:46.109Z,15.75
2022-12-03T04:10:36.668Z,16.30
2022-12-03T04:13:04.363Z,11.10
2022-12-03T04:15:31.382Z,17.60
2022-12-03T04:18:16.505Z,17.77
2022-12-03T04:20:43.114Z,16.52
2022-12-03T04:23:09.614Z,18.50
2022-12-03T04:25:54.805Z,16.17
2022-12-03T04:28:40.238Z,16.02
2022-12-03T04:31:25.950Z,16.02
2022-12-03T04:34:11.641Z,16.05
2022-12-03T04:36:38.279Z,15.23
2022-12-03T04:39:04.856Z,13.80
2022-12-03T04:41:31.348Z,15.30
2022-12-03T04:44:16.312Z,15.23
2022-12-03T04:46:42.838Z,17.00
2022-12-03T04:49:09.340Z,15.82
2022-12-03T04:51:36.013Z,14.43
2022-12-03T04:54:02.604Z,16.42
2022-12-03T04:56:29.142Z,16.10
2022-12-03T04:58:55.709Z,16.67
2022-12-03T05:01:22.608Z,16.98
2022-12-03T05:03:49.308Z,13.82
2022-12-03T05:06:15.834Z,17.25
2022-12-03T05:08:42.335Z,17.45
2022-12-03T05:11:08.807Z,17.35
2022-12-03T05:13:35.478Z,17.17
2022-12-03T05:16:01.939Z,14.25
2022-12-03T05:18:28.494Z,15.80
2022-12-03T05:20:54.987Z,17.42
2022-12-03T05:23:22.474Z,17.42
2022-12-03T05:25:49.050Z,16.70
2022-12-03T05:28:15.709Z,14.70
2022-12-03T05:30:42.365Z,16.02
2022-12-03T05:33:08.935Z,17.48
2022-12-03T05:35:35.414Z,17.15
2022-12-03T05:38:01.922Z,16.48
2022-12-03T05:40:28.617Z,16.42
2022-12-03T05:42:55.259Z,17.10
2022-12-03T05:45:33.440Z,15.30
2022-12-03T05:48:01.071Z,17.42
2022-12-03T05:50:30.117Z,17.20
2022-12-03T05:52:57.380Z,17.23
2022-12-03T05:55:24.334Z,17.55
2022-12-03T05:57:50.892Z,18.55
2022-12-03T06:00:28.919Z,17.27
2022-12-03T06:02:55.965Z,17.25
2022-12-03T06:05:23.346Z,16.52
2022-12-03T06:07:51.488Z,13.05
2022-12-03T06:10:22.489Z,17.30
2022-12-03T06:12:49.172Z,16.33
2022-12-03T06:15:16.067Z,16.67
2022-12-03T06:17:43.415Z,18.90
2022-12-03T06:20:13.848Z,17.10
2022-12-03T06:22:40.489Z,18.70
2022-12-03T06:25:07.788Z,18.27
2022-12-03T06:27:34.412Z,17.70
2022-12-03T06:30:00.906Z,17.33
2022-12-03T06:32:27.952Z,18.67
2022-12-03T06:34:54.651Z,18.67
2022-12-03T06:37:21.443Z,19.10
2022-12-03T06:39:47.972Z,13.57
2022-12-03T06:42:14.454Z,13.15
2022-12-03T06:44:41.491Z,19.15
2022-12-03T06:47:08.014Z,17.65
2022-12-03T06:49:34.831Z,17.77
2022-12-03T06:52:01.392Z,18.92
2022-12-03T06:54:27.940Z,19.35
2022-12-03T06:56:54.670Z,19.10
2022-12-03T06:59:21.188Z,19.60
2022-12-03T07:01:47.771Z,20.60
2022-12-03T07:04:14.318Z,29.88
2022-12-03T07:06:40.883Z,18.00
2022-12-03T07:09:07.452Z,20.20
2022-12-03T07:11:40.008Z,20.00
2022-12-03T07:14:08.007Z,20.80
2022-12-03T07:16:36.002Z,19.73
2022-12-03T07:19:03.544Z,19.58
2022-12-03T07:21:30.086Z,21.13
2022-12-03T07:23:56.576Z,20.08
2022-12-03T07:26:23.100Z,18.17
2022-12-03T07:28:49.627Z,19.73
2022-12-03T07:31:16.213Z,18.73
2022-12-03T07:33:42.918Z,17.92
2022-12-03T07:36:10.306Z,19.23
2022-12-03T07:38:37.034Z,21.00
2022-12-03T07:41:03.574Z,16.65
2022-12-03T07:43:30.200Z,20.17
2022-12-03T07:45:56.696Z,16.67
2022-12-03T07:48:23.281Z,16.15
2022-12-03T07:50:49.806Z,17.90
2022-12-03T07:53:16.483Z,21.92
2022-12-03T07:55:43.303Z,22.38
2022-12-03T07:58:09.766Z,18.88
2022-12-03T08:00:36.396Z,20.45
2022-12-03T08:03:03.153Z,17.38
2022-12-03T08:05:29.943Z,19.52
2022-12-03T08:07:56.814Z,22.13
2022-12-03T08:10:25.175Z,21.52
2022-12-03T08:12:51.703Z,18.48
2022-12-03T08:15:24.284Z,25.40
2022-12-03T08:17:58.727Z,21.30
2022-12-03T08:20:33.846Z,21.85
2022-12-03T08:23:06.690Z,23.33
2022-12-03T08:25:33.273Z,21.55
2022-12-03T08:28:35.679Z,18.83
2022-12-03T08:31:18.575Z,21.17
2022-12-03T08:33:46.293Z,23.88
2022-12-03T08:36:16.812Z,27.52
2022-12-03T08:38:51.059Z,23.95
2022-12-03T08:41:39.538Z,23.50
2022-12-03T08:44:36.743Z,22.05
2022-12-03T08:47:09.120Z,24.50
2022-12-03T08:49:36.935Z,27.25
2022-12-03T08:52:13.784Z,22.02
2022-12-03T08:54:41.332Z,21.48
2022-12-03T08:57:27.398Z,25.02
2022-12-03T08:59:58.957Z,25.00
2022-12-03T09:02:32.637Z,26.33
2022-12-03T09:05:13.374Z,26.45
2022-12-03T09:07:40.022Z,24.10
2022-12-03T09:10:07.510Z,22.23
2022-12-03T09:12:34.085Z,24.52
2022-12-03T09:15:01.362Z,22.52
2022-12-03T09:17:27.851Z,24.67
2022-12-03T09:19:54.626Z,23.98
2022-12-03T09:22:21.122Z,22.38
2022-12-03T09:24:47.696Z,20.73
2022-12-03T09:27:14.173Z,24.67
2022-12-03T09:29:40.764Z,22.38
2022-12-03T09:32:07.321Z,22.73
2022-12-03T09:34:34.856Z,24.25
2022-12-03T09:37:01.857Z,24.02
2022-12-03T09:39:28.360Z,17.63
2022-12-03T09:41:55.782Z,26.88
2022-12-03T09:44:22.454Z,22.02
2022-12-03T09:46:49.463Z,25.15
2022-12-03T09:49:18.279Z,21.20
2022-12-03T09:51:45.579Z,28.80
2022-12-03T09:54:23.159Z,23.15
2022-12-03T09:56:50.686Z,26.33
2022-12-03T09:59:17.559Z,26.50
2022-12-03T10:01:44.686Z,23.70
2022-12-03T10:04:11.679Z,23.63
2022-12-03T10:06:43.991Z,24.05
2022-12-03T10:09:18.297Z,22.42
2022-12-03T10:11:44.849Z,24.55
2022-12-03T10:14:15.487Z,22.75
2022-12-03T10:16:42.208Z,28.05
2022-12-03T10:19:26.158Z,28.38
2022-12-03T10:21:53.018Z,25.05
2022-12-03T10:24:29.028Z,20.63
2022-12-03T10:27:00.893Z,25.13
2022-12-03T10:29:33.894Z,22.67
2022-12-03T10:32:06.450Z,24.20
2022-12-03T10:34:38.949Z,23.75
2022-12-03T10:37:14.086Z,23.35
2022-12-03T10:39:59.460Z,21.50
2022-12-03T10:42:28.930Z,25.67
2022-12-03T10:45:07.694Z,19.00
2022-12-03T10:47:34.437Z,23.27
2022-12-03T10:50:04.745Z,18.33
2022-12-03T10:52:31.617Z,25.02
2022-12-03T10:54:58.338Z,23.10
2022-12-03T10:57:25.237Z,25.35
2022-12-03T10:59:51.781Z,24.30
2022-12-03T11:02:24.016Z,26.02
2022-12-03T11:04:51.916Z,25.85
2022-12-03T11:07:20.871Z,24.75
2022-12-03T11:09:50.097Z,23.55
2022-12-03T11:12:20.739Z,22.15
2022-12-03T11:15:05.255Z,26.17
2022-12-03T11:17:43.997Z,23.65
2022-12-03T11:20:22.993Z,23.13
2022-12-03T11:22:55.120Z,23.17
2022-12-03T11:25:24.609Z,23.63
2022-12-03T11:28:13.063Z,24.52
2022-12-03T11:30:48.914Z,23.92
2022-12-03T11:33:28.098Z,24.95
2022-12-03T11:36:03.850Z,24.17
2022-12-03T11:38:41.016Z,24.75
2022-12-03T11:41:13.508Z,24.88
2022-12-03T11:43:54.017Z,25.13
2022-12-03T11:46:22.366Z,25.40
2022-12-03T11:48:52.282Z,25.00
2022-12-03T11:51:22.090Z,24.10
2022-12-03T11:53:51.064Z,26.38
2022-12-03T11:56:21.234Z,22.95
2022-12-03T11:58:48.129Z,28.33
2022-12-03T12:01:16.361Z,25.15
2022-12-03T12:03:49.051Z,24.80
2022-12-03T12:06:17.896Z,24.42
2022-12-03T12:08:58.924Z,22.75
2022-12-03T12:11:34.189Z,24.15
2022-12-03T12:14:03.042Z,24.02
2022-12-03T12:16:51.868Z,25.20
2022-12-03T12:19:33.493Z,19.80
2022-12-03T12:22:20.138Z,24.95
2022-12-03T12:24:51.818Z,23.73
2022-12-03T12:27:29.046Z,23.48
2022-12-03T12:30:00.743Z,23.95
2022-12-03T12:32:30.624Z,23.73
2022-12-03T12:35:02.454Z,25.73
2022-12-03T12:37:47.368Z,23.02
2022-12-03T12:40:18.122Z,23.77
2022-12-03T12:42:53.634Z,25.60
2022-12-03T12:45:36.532Z,24.23
2022-12-03T12:50:50.742Z,23.55
2022-12-03T12:53:24.214Z,23.13
2022-12-03T12:55:57.558Z,24.52
2022-12-03T12:58:25.488Z,26.20
2022-12-03T13:00:55.476Z,24.13
2022-12-03T13:03:26.083Z,26.08
2022-12-03T13:05:53.777Z,23.13
2022-12-03T13:08:30.713Z,25.58
2022-12-03T13:11:02.010Z,25.92
2022-12-03T13:13:30.303Z,23.67
2022-12-03T13:16:18.872Z,22.85
2022-12-03T13:18:49.470Z,24.30
2022-12-03T13:21:44.060Z,24.73
2022-12-03T13:24:32.064Z,26.35
2022-12-03T13:27:19.649Z,27.38
2022-12-03T13:29:49.723Z,23.63
2022-12-03T13:32:20.157Z,24.17
2022-12-03T13:34:47.559Z,25.42
2022-12-03T13:37:22.554Z,23.73
2022-12-03T13:39:55.180Z,26.77
2022-12-03T13:42:38.746Z,23.65
2022-12-03T13:45:25.806Z,20.90
2022-12-03T13:47:58.386Z,24.42
2022-12-03T13:50:43.962Z,25.15
2022-12-03T13:53:18.258Z,22.05
2022-12-03T13:55:48.090Z,24.88
2022-12-03T13:58:14.722Z,25.58
2022-12-03T14:00:41.478Z,25.25
2022-12-03T14:03:08.168Z,25.65
2022-12-03T14:05:34.818Z,25.33
2022-12-03T14:08:04.951Z,26.40
2022-12-03T14:10:31.959Z,26.05
2022-12-03T14:12:58.447Z,25.48
2022-12-03T14:15:27.535Z,27.30
2022-12-03T14:17:54.175Z,26.30
2022-12-03T14:20:21.103Z,26.10
2022-12-03T14:22:47.623Z,24.77
2022-12-03T14:25:14.207Z,27.15
2022-12-03T14:27:40.701Z,27.42
2022-12-03T14:30:07.876Z,28.17
2022-12-03T14:32:34.369Z,27.27
2022-12-03T14:35:05.140Z,27.48
2022-12-03T14:37:34.761Z,29.58
2022-12-03T14:40:03.735Z,27.30
2022-12-03T14:42:30.272Z,28.55
2022-12-03T14:44:57.439Z,28.75
2022-12-03T14:47:24.004Z,29.00
2022-12-03T14:49:51.736Z,25.70
2022-12-03T14:52:18.937Z,28.85
2022-12-03T14:54:45.651Z,26.65
2022-12-03T14:57:14.385Z,26.35
2022-12-03T14:59:42.505Z,28.83
2022-12-03T15:02:10.384Z,27.58
2022-12-03T15:04:37.532Z,28.95
2022-12-03T15:07:04.373Z,29.42
2022-12-03T15:09:30.954Z,29.48
2022-12-03T15:11:57.467Z,33.10
2022-12-03T15:14:24.008Z,27.48
2022-12-03T15:16:50.615Z,29.70
2022-12-03T15:19:17.200Z,29.10
2022-12-03T15:21:43.850Z,28.98
2022-12-03T15:24:10.804Z,28.25
2022-12-03T15:26:37.501Z,33.92
2022-12-03T15:29:04.108Z,26.92
2022-12-03T15:31:30.806Z,30.45
2022-12-03T15:33:57.326Z,30.45
2022-12-03T15:36:23.851Z,30.95
2022-12-03T15:38:50.349Z,34.53
2022-12-03T15:41:29.504Z,31.63
2022-12-03T15:44:01.523Z,32.15
2022-12-03T15:46:28.777Z,31.92
2022-12-03T15:48:55.851Z,31.38
2022-12-03T15:51:22.529Z,34.00
2022-12-03T15:53:49.223Z,33.65
2022-12-03T15:56:15.976Z,30.05
2022-12-03T15:58:42.895Z,32.40
2022-12-03T16:01:09.844Z,32.28
2022-12-03T16:03:36.885Z,32.55
2022-12-03T16:06:03.543Z,31.88
2022-12-03T16:08:30.131Z,31.83
2022-12-03T16:10:56.758Z,33.60
2022-12-03T16:13:23.302Z,33.03
2022-12-03T16:15:50.009Z,35.88
2022-12-03T16:18:16.632Z,29.33
2022-12-03T16:20:43.246Z,33.97
2022-12-03T16:23:09.835Z,33.90
2022-12-03T16:25:36.323Z,34.22
2022-12-03T16:28:03.242Z,37.92
2022-12-03T16:30:29.794Z,37.10
2022-12-03T16:32:57.114Z,37.72
2022-12-03T16:35:23.688Z,35.97
2022-12-03T16:37:50.146Z,35.70
2022-12-03T16:40:16.819Z,34.45
2022-12-03T16:42:43.738Z,35.85
2022-12-03T16:45:10.758Z,36.05
2022-12-03T16:47:37.633Z,34.60
2022-12-03T16:50:07.599Z,31.27
2022-12-03T16:52:35.013Z,32.67
2022-12-03T16:55:01.753Z,33.67
2022-12-03T16:57:33.432Z,32.72
2022-12-03T17:00:00.958Z,32.67
2022-12-03T17:02:27.786Z,34.70
2022-12-03T17:04:54.859Z,28.55
2022-12-03T17:07:21.376Z,34.38
2022-12-03T17:09:47.883Z,32.72
2022-12-03T17:12:14.916Z,33.92
2022-12-03T17:14:41.382Z,36.63
2022-12-03T17:17:08.251Z,35.45
2022-12-03T17:19:35.959Z,36.15
2022-12-03T17:22:02.433Z,33.90
2022-12-03T17:24:28.962Z,38.35
2022-12-03T17:26:55.466Z,37.08
2022-12-03T17:29:22.248Z,45.42
2022-12-03T17:31:48.866Z,35.10
2022-12-03T17:34:15.455Z,34.13
2022-12-03T17:36:41.936Z,36.72
2022-12-03T17:39:08.924Z,38.70
2022-12-03T17:41:35.457Z,36.75
2022-12-03T17:44:07.293Z,36.90
2022-12-03T17:46:36.451Z,36.30
2022-12-03T17:49:03.795Z,35.72
2022-12-03T17:51:30.681Z,39.28
2022-12-03T17:53:58.165Z,36.08
2022-12-03T17:56:25.605Z,35.95
2022-12-03T17:58:52.180Z,39.33
2022-12-03T18:01:18.833Z,34.28
2022-12-03T18:03:45.363Z,37.17
2022-12-03T18:06:11.900Z,37.03
2022-12-03T18:08:38.465Z,39.15
2022-12-03T18:11:05.202Z,38.00
2022-12-03T18:13:31.695Z,36.38
2022-12-03T18:15:58.235Z,36.40
2022-12-03T18:18:24.780Z,37.70
2022-12-03T18:20:53.284Z,36.45
2022-12-03T18:23:21.071Z,37.28
2022-12-03T18:25:47.932Z,39.08
2022-12-03T18:28:14.452Z,29.65
2022-12-03T18:30:40.943Z,35.25
2022-12-03T18:33:07.538Z,38.17
2022-12-03T18:35:34.136Z,37.63
2022-12-03T18:38:00.717Z,37.63
2022-12-03T18:40:27.351Z,41.30
2022-12-03T18:42:53.897Z,35.00
2022-12-03T18:45:21.687Z,33.80
2022-12-03T18:47:48.420Z,37.28
2022-12-03T18:50:15.035Z,42.72
2022-12-03T18:52:41.662Z,37.33
2022-12-03T18:55:12.421Z,39.03
2022-12-03T18:57:39.942Z,30.67
2022-12-03T19:00:13.242Z,37.28
2022-12-03T19:03:03.772Z,38.50
2022-12-03T19:05:26.776Z,36.58
2022-12-03T19:07:55.235Z,37.92
2022-12-03T19:10:23.115Z,36.70
2022-12-03T19:12:50.254Z,38.22
2022-12-03T19:15:17.161Z,36.70
2022-12-03T19:17:49.236Z,35.88
2022-12-03T19:20:16.016Z,34.35
2022-12-03T19:22:42.759Z,35.58
2022-12-03T19:25:09.445Z,36.03
2022-12-03T19:27:35.932Z,35.03
2022-12-03T19:30:02.455Z,35.28
2022-12-03T19:32:29.043Z,33.70
2022-12-03T19:34:55.657Z,34.33
2022-12-03T19:37:22.193Z,35.97
2022-12-03T19:39:53.263Z,34.97
2022-12-03T19:42:20.037Z,35.80
2022-12-03T19:44:46.620Z,35.17
2022-12-03T19:47:13.244Z,33.28
2022-12-03T19:49:39.780Z,35.25
2022-12-03T19:52:06.265Z,36.42
2022-12-03T19:54:32.955Z,34.40
2022-12-03T19:56:59.516Z,33.10
2022-12-03T19:59:26.088Z,35.38
2022-12-03T20:01:53.269Z,36.35
2022-12-03T20:04:20.107Z,36.25
2022-12-03T20:06:47.601Z,33.47
2022-12-03T20:09:18.258Z,33.45
2022-12-03T20:11:45.983Z,35.00
2022-12-03T20:14:15.533Z,31.80
2022-12-03T20:16:42.396Z,34.15
2022-12-03T20:19:12.069Z,34.42
2022-12-03T20:21:39.375Z,36.58
2022-12-03T20:24:07.729Z,32.67
2022-12-03T20:26:34.556Z,34.05
2022-12-03T20:29:01.571Z,30.60
2022-12-03T20:31:30.860Z,31.20
2022-12-03T20:34:00.628Z,30.17
2022-12-03T20:36:29.140Z,29.83
2022-12-03T20:38:56.957Z,31.08
2022-12-03T20:41:24.274Z,29.83
2022-12-03T20:43:51.627Z,29.98
2022-12-03T20:46:21.500Z,31.38
2022-12-03T20:48:48.262Z,31.67
2022-12-03T20:51:18.060Z,29.38
2022-12-03T20:53:45.231Z,28.60
2022-12-03T20:56:26.065Z,28.10
2022-12-03T20:58:53.752Z,31.50
2022-12-03T21:01:26.500Z,29.58
2022-12-03T21:03:55.856Z,27.17
2022-12-03T21:06:24.214Z,30.02
2022-12-03T21:08:55.147Z,30.10
2022-12-03T21:13:53.053Z,26.20
2022-12-03T21:16:45.480Z,28.17
2022-12-03T21:19:10.072Z,27.63
2022-12-03T21:21:36.810Z,28.10
2022-12-03T21:24:03.526Z,31.42
2022-12-03T21:26:30.020Z,31.27
2022-12-03T21:28:56.512Z,28.75
2022-12-03T21:31:25.990Z,29.75
2022-12-03T21:33:53.949Z,28.80
2022-12-03T21:36:20.608Z,29.52
2022-12-03T21:38:48.254Z,31.05
2022-12-03T21:41:16.021Z,33.47
2022-12-03T21:43:43.403Z,30.35
2022-12-03T21:47:08.371Z,29.90
2022-12-03T21:49:00.286Z,30.73
2022-12-03T21:51:26.822Z,32.83
2022-12-03T21:53:53.373Z,31.15
2022-12-03T21:56:20.118Z,31.00
2022-12-03T21:58:47.121Z,30.88
2022-12-03T22:01:16.800Z,31.02
2022-12-03T22:03:43.705Z,32.70
2022-12-03T22:06:10.930Z,32.63
2022-12-03T22:08:39.020Z,33.80
2022-12-03T22:11:12.629Z,30.33
2022-12-03T22:13:39.741Z,27.83
2022-12-03T22:16:12.211Z,29.38
2022-12-03T22:18:39.333Z,30.00
2022-12-03T22:21:08.005Z,28.92
2022-12-03T22:23:35.288Z,30.50
2022-12-03T22:26:05.634Z,30.17
2022-12-03T22:28:32.855Z,29.30
2022-12-03T22:30:59.687Z,28.20
2022-12-03T22:33:26.438Z,29.88
2022-12-03T22:35:57.454Z,29.20
2022-12-03T22:40:51.118Z,27.67
2022-12-03T22:43:18.814Z,30.90
2022-12-03T22:45:45.804Z,28.55
2022-12-03T22:48:12.730Z,25.95
2022-12-03T22:50:44.467Z,27.77
2022-12-03T22:53:12.133Z,28.42
2022-12-03T22:55:39.259Z,30.58
2022-12-03T22:58:07.000Z,29.25
2022-12-03T23:00:37.325Z,27.35
2022-12-03T23:03:04.781Z,27.92
2022-12-03T23:05:38.595Z,30.75
2022-12-03T23:08:06.917Z,22.77
2022-12-03T23:10:35.804Z,28.50
2022-12-03T23:13:02.466Z,32.50
2022-12-03T23:15:29.070Z,28.30
2022-12-03T23:17:55.894Z,28.20
2022-12-03T23:20:22.699Z,28.02
2022-12-03T23:22:49.373Z,28.73
2022-12-03T23:25:16.567Z,29.85
2022-12-03T23:27:43.716Z,25.08
2022-12-03T23:30:11.274Z,30.92
2022-12-03T23:32:38.478Z,28.23
2022-12-03T23:35:05.903Z,20.38
2022-12-03T23:37:32.461Z,27.77
2022-12-03T23:39:58.984Z,26.38
2022-12-03T23:42:25.545Z,26.88
2022-12-03T23:44:52.104Z,27.92
2022-12-03T23:47:18.584Z,26.73
2022-12-03T23:49:45.115Z,28.63
2022-12-03T23:52:11.627Z,26.60
2022-12-03T23:54:38.197Z,26.15
2022-12-03T23:57:04.804Z,25.02
2022-12-03T23:59:31.355Z,24.55
